Seiling, Oklahoma
Current Conditions -  °F | °C
As of 12:15 PM on Sunday 25 Jan 2015 (Local Time) from KJWG Reporting Station
Clear Clear  
Wind Chill: 56°   Ceiling: Unl
Heat Index: 56°   Visibility: 10mi
Dew Point: 29°   Wind: 28mph
Humidity: 37%   Direction: 340°NNW
Pressure: 30.06"   Gusts: 36mph
Location:  36.15°N, 98.92°W
Report Text: KJWG 251815Z AUTO 34024G31KT 10SM CLR 13/M01 A3006 RMK AO2 T01311014
Loading
Personal Weather Stations






























Interactive Weather Map New forecast layout! Learn more

10-Day Weather Forecast

Advertisements
Track Severe Weather on mobile